Airfield :
LOGIN :

Register | Disclaimer

   EN    FR    IT 

 










Legend :    VFR   Marginal VFR   IFR   Intensive IFR   Very Intensive IFR
Visi :
Ceiling :
>= 8 km
>= 3000ft
5 to 8 km
1000 to 3000 ft
1500m to 5 km
500 to 1000 ft
800 to 1500m
200 to 500 ft
< 800m
< 200 ft
Symbols :   Thunderstorms  Fog  Heavy snow  Heavy precipitations  Wind > 20 kt
SIGMETs :     Misc.  Thunderstorms  Icing  Turbulence  Mountain Waves  Volcanic Ashes






- Airport Elevation : 37 ft


EHVL - Vlieland Heliport

CURRENT METAR :
  • 181108Z AUTO 19020KT 9999 FEW015CB BKN074 BKN082 12/10 Q0997 BLU

EXPIRED METARs :
  • 181100Z AUTO 19019KT 9999 FEW001 BKN015CB BKN069 OVC074 11/10 Q0997 WHT
  • 181055Z AUTO 19016KT 9999 -SHRA FEW001 BKN015CB OVC052 11/10 Q0997 WHT
  • 181034Z AUTO 19023KT 7000 -RA SCT015CB SCT046 BKN051 OVC056 11/10 Q0998 WHT
  • 181012Z AUTO 20021KT 9000 RA FEW014 FEW015CB OVC052 11/09 Q0998 BLU
  • 181000Z AUTO 18023G33KT 150V210 2800 RA FEW015CB SCT019 BKN026 13/12 Q0998 YLO
  • 180937Z AUTO 17021KT 9999 SCT015CB BKN019 BKN023 14/12 Q0998 WHT
  • 180933Z AUTO 16021KT 9999 FEW014 FEW015CB SCT016 BKN022 14/12 Q0998 WHT
  • 180925Z AUTO 16021KT 9999 FEW014 FEW015CB SCT017 BKN021 14/12 Q0998 WHT
  • 180905Z AUTO 16021KT 9999 FEW011 BKN016 BKN019 14/12 Q0998 WHT
  • 180855Z AUTO 16021KT 9999 SCT012 BKN014 OVC019 14/12 Q0999 GRN
  • 180846Z AUTO 16019KT 9999 SCT013 BKN016 BKN037 14/12 Q0999 GRN
  • 180828Z AUTO 17018KT 9999 FEW010 BKN047 OVC097 13/12 Q0999 BLU
  • 180825Z AUTO 17019KT 9999 SCT010 BKN013 BKN017 13/12 Q0999 GRN

Expired Forecast.



MET'MAP, your aeronautical weather chart ! - Copyright ORBIFLY December 2007 - Disclaimer

ORBIFLY MET'MAP TEAM :

Programming & Development : Alexandra Zaïnal
Concept & Development : Baudouin d'Aumeries
Co-Development & Prog : Marc-Olivier Méhu
Technical & hardware support : Manuel Goepfert

Contact : metmap@orbifly.com




SOURCES & CREDITS :

   NOAA